createdAt,value
2023-05-16T00:00:48.863Z,99455.91
2023-05-16T00:03:16.020Z,99452.41
2023-05-16T00:05:43.119Z,99453.16
2023-05-16T00:08:10.114Z,99449.66
2023-05-16T00:10:37.611Z,99450.47
2023-05-16T00:16:33.827Z,99444.56
2023-05-16T00:19:01.275Z,99447.16
2023-05-16T00:21:28.788Z,99456.78
2023-05-16T00:23:55.780Z,99448.84
2023-05-16T00:26:22.824Z,99448.94
2023-05-16T00:28:49.827Z,99454.38
2023-05-16T00:31:16.837Z,99453.22
2023-05-16T00:33:43.866Z,99457.03
2023-05-16T00:36:11.336Z,99459.72
2023-05-16T00:38:38.373Z,99451.47
2023-05-16T00:41:05.511Z,99452.28
2023-05-16T00:43:32.511Z,99447.94
2023-05-16T00:46:00.678Z,99452.31
2023-05-16T00:48:27.869Z,99448.78
2023-05-16T00:50:55.043Z,99462.88
2023-05-16T00:53:22.263Z,99460.50
2023-05-16T00:55:49.319Z,99450.63
2023-05-16T00:58:17.855Z,99454.19
2023-05-16T01:00:48.733Z,99452.22
2023-05-16T01:03:16.134Z,99445.31
2023-05-16T01:05:43.283Z,99446.94
2023-05-16T01:08:10.891Z,99451.38
2023-05-16T01:10:59.264Z,99456.84
2023-05-16T01:13:57.796Z,99457.66
2023-05-16T01:16:39.097Z,99460.50
2023-05-16T01:19:52.427Z,99456.78
2023-05-16T01:22:51.697Z,99467.47
2023-05-16T01:25:50.839Z,99466.59
2023-05-16T01:28:19.275Z,99460.34
2023-05-16T01:30:46.406Z,99464.00
2023-05-16T01:33:13.661Z,99475.31
2023-05-16T01:35:54.480Z,99470.91
2023-05-16T01:38:41.904Z,99480.59
2023-05-16T01:41:27.017Z,99483.41
2023-05-16T01:44:05.230Z,99483.31
2023-05-16T01:46:38.869Z,99491.50
2023-05-16T01:49:31.462Z,99490.59
2023-05-16T01:52:08.552Z,99489.47
2023-05-16T01:54:42.426Z,99492.28
2023-05-16T01:57:10.558Z,99496.53
2023-05-16T01:59:38.909Z,99499.19
2023-05-16T02:02:06.167Z,99495.59
2023-05-16T02:04:33.181Z,99507.25
2023-05-16T02:07:01.888Z,99493.91
2023-05-16T02:09:28.989Z,99490.34
2023-05-16T02:11:56.038Z,99494.00
2023-05-16T02:14:23.083Z,99494.97
2023-05-16T02:16:50.182Z,99497.53
2023-05-16T02:19:17.294Z,99501.97
2023-05-16T02:21:44.419Z,99499.25
2023-05-16T02:24:11.400Z,99494.94
2023-05-16T02:26:38.430Z,99493.13
2023-05-16T02:29:06.177Z,99500.94
2023-05-16T02:31:34.952Z,99494.78
2023-05-16T02:34:02.539Z,99496.72
2023-05-16T02:36:29.795Z,99493.13
2023-05-16T02:38:56.815Z,99499.91
2023-05-16T02:41:24.220Z,99506.00
2023-05-16T02:43:51.260Z,99496.38
2023-05-16T02:46:27.878Z,99499.78
2023-05-16T02:48:55.413Z,99490.00
2023-05-16T02:51:27.057Z,99500.81
2023-05-16T02:53:56.990Z,99511.97
2023-05-16T02:56:24.135Z,99497.00
2023-05-16T02:58:51.325Z,99514.63
2023-05-16T03:01:18.691Z,99515.78
2023-05-16T03:03:45.924Z,99515.84
2023-05-16T03:06:13.240Z,99513.09
2023-05-16T03:08:40.345Z,99525.63
2023-05-16T03:11:07.369Z,99516.75
2023-05-16T03:13:34.560Z,99515.19
2023-05-16T03:16:01.669Z,99523.13
2023-05-16T03:18:28.818Z,99523.19
2023-05-16T03:20:56.327Z,99519.00
2023-05-16T03:23:23.398Z,99522.63
2023-05-16T03:25:50.782Z,99519.25
2023-05-16T03:28:18.446Z,99528.69
2023-05-16T03:30:45.765Z,99530.03
2023-05-16T03:33:12.774Z,99538.13
2023-05-16T03:35:40.949Z,99533.44
2023-05-16T03:38:08.286Z,99532.47
2023-05-16T03:40:35.838Z,99537.97
2023-05-16T03:43:02.975Z,99539.88
2023-05-16T03:45:31.690Z,99539.75
2023-05-16T03:47:59.023Z,99537.47
2023-05-16T03:50:26.384Z,99535.13
2023-05-16T03:52:54.419Z,99530.94
2023-05-16T03:55:21.857Z,99529.91
2023-05-16T03:57:50.198Z,99526.91
2023-05-16T04:00:17.497Z,99534.00
2023-05-16T04:02:45.047Z,99517.41
2023-05-16T04:05:14.019Z,99527.88
2023-05-16T04:07:41.529Z,99532.81
2023-05-16T04:10:10.807Z,99514.41
2023-05-16T04:12:38.027Z,99523.03
2023-05-16T04:15:06.934Z,99520.34
2023-05-16T04:17:34.641Z,99524.19
2023-05-16T04:20:01.778Z,99520.59
2023-05-16T04:22:28.861Z,99521.00
2023-05-16T04:24:55.905Z,99537.34
2023-05-16T04:27:23.547Z,99530.84
2023-05-16T04:29:50.756Z,99536.22
2023-05-16T04:32:18.358Z,99528.38
2023-05-16T04:34:46.800Z,99518.84
2023-05-16T04:37:14.224Z,99522.28
2023-05-16T04:39:42.691Z,99523.22
2023-05-16T04:42:09.824Z,99536.56
2023-05-16T04:44:36.804Z,99538.06
2023-05-16T04:47:03.866Z,99542.75
2023-05-16T04:49:30.867Z,99541.03
2023-05-16T04:51:57.940Z,99541.75
2023-05-16T04:54:24.997Z,99541.72
2023-05-16T04:56:52.040Z,99533.69
2023-05-16T04:59:19.052Z,99544.03
2023-05-16T05:01:46.175Z,99541.72
2023-05-16T05:04:13.367Z,99545.09
2023-05-16T05:06:41.258Z,99550.81
2023-05-16T05:09:08.467Z,99558.63
2023-05-16T05:11:35.673Z,99563.16
2023-05-16T05:14:03.755Z,99555.59
2023-05-16T05:16:30.865Z,99548.28
2023-05-16T05:18:58.328Z,99545.53
2023-05-16T05:21:25.575Z,99549.50
2023-05-16T05:23:52.792Z,99562.47
2023-05-16T05:26:19.866Z,99561.38
2023-05-16T05:28:53.755Z,99570.50
2023-05-16T05:31:28.659Z,99569.69
2023-05-16T05:33:56.957Z,99570.47
2023-05-16T05:36:24.034Z,99580.81
2023-05-16T05:38:51.149Z,99578.69
2023-05-16T05:41:18.233Z,99582.44
2023-05-16T05:43:45.238Z,99580.69
2023-05-16T05:46:12.424Z,99590.66
2023-05-16T05:48:39.507Z,99593.72
2023-05-16T05:51:06.963Z,99606.00
2023-05-16T05:53:34.641Z,99601.94
2023-05-16T05:56:01.611Z,99607.41
2023-05-16T05:58:28.696Z,99611.47
2023-05-16T06:00:55.721Z,99623.94
2023-05-16T06:03:22.799Z,99624.78
2023-05-16T06:05:49.975Z,99641.78
2023-05-16T06:08:17.159Z,99651.69
2023-05-16T06:10:44.239Z,99649.91
2023-05-16T06:13:11.417Z,99652.59
2023-05-16T06:15:38.592Z,99647.22
2023-05-16T06:18:05.838Z,99666.78
2023-05-16T06:20:32.931Z,99665.84
2023-05-16T06:22:59.956Z,99680.06
2023-05-16T06:25:27.203Z,99694.25
2023-05-16T06:27:54.370Z,99699.50
2023-05-16T06:30:21.381Z,99700.44
2023-05-16T06:32:48.672Z,99699.56
2023-05-16T06:35:15.866Z,99695.13
2023-05-16T06:37:43.218Z,99699.56
2023-05-16T06:40:11.463Z,99711.09
2023-05-16T06:42:38.937Z,99710.16
2023-05-16T06:45:07.170Z,99708.50
2023-05-16T06:47:34.273Z,99716.34
2023-05-16T06:50:01.275Z,99720.81
2023-05-16T06:52:28.441Z,99723.44
2023-05-16T06:54:55.507Z,99730.63
2023-05-16T06:57:22.578Z,99725.22
2023-05-16T06:59:49.587Z,99735.91
2023-05-16T07:02:16.904Z,99741.28
2023-05-16T07:04:44.138Z,99742.09
2023-05-16T07:07:11.170Z,99755.34
2023-05-16T07:09:38.346Z,99748.28
2023-05-16T07:12:06.365Z,99746.56
2023-05-16T07:14:33.432Z,99752.88
2023-05-16T07:17:00.552Z,99759.09
2023-05-16T07:19:27.863Z,99766.25
2023-05-16T07:21:55.200Z,99767.09
2023-05-16T07:24:22.375Z,99763.28
2023-05-16T07:26:49.703Z,99765.88
2023-05-16T07:29:16.873Z,99768.78
2023-05-16T07:31:44.109Z,99765.31
2023-05-16T07:34:12.216Z,99774.50
2023-05-16T07:36:39.517Z,99776.72
2023-05-16T07:39:06.954Z,99784.31
2023-05-16T07:41:33.994Z,99795.63
2023-05-16T07:44:01.082Z,99795.28
2023-05-16T07:46:28.406Z,99802.78
2023-05-16T07:48:55.593Z,99819.84
2023-05-16T07:51:22.705Z,99816.94
2023-05-16T07:53:49.789Z,99816.50
2023-05-16T07:56:16.795Z,99819.25
2023-05-16T07:58:44.019Z,99818.34
2023-05-16T08:01:11.977Z,99819.09
2023-05-16T08:03:39.249Z,99816.31
2023-05-16T08:06:06.674Z,99814.94
2023-05-16T08:08:33.789Z,99823.78
2023-05-16T08:11:00.782Z,99828.25
2023-05-16T08:13:27.841Z,99830.06
2023-05-16T08:15:55.016Z,99826.56
2023-05-16T08:18:22.885Z,99830.09
2023-05-16T08:20:50.208Z,99835.38
2023-05-16T08:23:17.213Z,99838.81
2023-05-16T08:25:44.451Z,99831.63
2023-05-16T08:28:11.480Z,99835.84
2023-05-16T08:30:41.098Z,99824.91
2023-05-16T08:33:10.513Z,99827.25
2023-05-16T08:35:37.649Z,99824.81
2023-05-16T08:38:04.989Z,99826.47
2023-05-16T08:40:32.180Z,99817.09
2023-05-16T08:42:59.473Z,99824.28
2023-05-16T08:45:27.243Z,99824.31
2023-05-16T08:47:57.061Z,99831.31
2023-05-16T08:50:25.862Z,99830.16
2023-05-16T08:52:54.227Z,99837.50
2023-05-16T08:55:22.432Z,99837.91
2023-05-16T08:57:52.050Z,99827.97
2023-05-16T09:00:19.893Z,99834.41
2023-05-16T09:02:47.463Z,99841.84
2023-05-16T09:05:18.554Z,99846.16
2023-05-16T09:07:46.537Z,99841.78
2023-05-16T09:10:14.138Z,99840.22
2023-05-16T09:12:42.170Z,99839.25
2023-05-16T09:15:11.415Z,99841.66
2023-05-16T09:17:44.391Z,99833.41
2023-05-16T09:20:21.729Z,99852.16
2023-05-16T09:22:55.572Z,99841.78
2023-05-16T09:25:30.438Z,99850.06
2023-05-16T09:28:02.517Z,99847.69
2023-05-16T09:30:34.428Z,99848.97
2023-05-16T09:33:02.075Z,99854.66
2023-05-16T09:37:59.722Z,99881.09
2023-05-16T09:40:26.761Z,99876.16
2023-05-16T09:43:07.975Z,99876.19
2023-05-16T09:45:37.035Z,99880.34
2023-05-16T09:48:10.723Z,99902.47
2023-05-16T09:50:38.143Z,99898.50
2023-05-16T09:53:06.991Z,99900.53
2023-05-16T09:55:34.570Z,99907.56
2023-05-16T09:58:01.877Z,99900.56
2023-05-16T10:00:33.821Z,99913.78
2023-05-16T10:03:05.315Z,99913.88
2023-05-16T10:05:34.001Z,99925.63
2023-05-16T10:08:04.161Z,99925.94
2023-05-16T10:10:34.653Z,99942.59
2023-05-16T10:13:03.572Z,99932.72
2023-05-16T10:15:31.155Z,99936.47
2023-05-16T10:18:00.609Z,99939.75
2023-05-16T10:20:28.196Z,99950.56
2023-05-16T10:22:58.174Z,99952.28
2023-05-16T10:25:34.672Z,99960.47
2023-05-16T10:28:02.697Z,99965.81
2023-05-16T10:30:31.314Z,99954.63
2023-05-16T10:32:59.376Z,99961.78
2023-05-16T10:35:27.938Z,99961.50
2023-05-16T10:37:56.326Z,99965.94
2023-05-16T10:40:24.377Z,99969.16
2023-05-16T10:42:59.189Z,99971.56
2023-05-16T10:45:26.690Z,99977.16
2023-05-16T10:47:55.859Z,99972.00
2023-05-16T10:50:43.852Z,99968.47
2023-05-16T10:53:20.817Z,99970.47
2023-05-16T10:55:59.769Z,99971.25
2023-05-16T10:58:42.274Z,99966.69
2023-05-16T11:01:26.976Z,99984.38
2023-05-16T11:04:00.258Z,99975.88
2023-05-16T11:06:35.648Z,99982.84
2023-05-16T11:09:13.457Z,99981.59
2023-05-16T11:11:53.339Z,99987.81
2023-05-16T11:14:33.179Z,99996.78
2023-05-16T11:17:23.912Z,99996.78
2023-05-16T11:19:55.195Z,99994.00
2023-05-16T11:22:24.746Z,100006.66
2023-05-16T11:25:07.229Z,99996.13
2023-05-16T11:27:48.214Z,100000.56
2023-05-16T11:30:18.128Z,99999.72
2023-05-16T11:32:46.815Z,100004.25
2023-05-16T11:35:17.209Z,100005.91
2023-05-16T11:37:47.138Z,100011.75
2023-05-16T11:40:18.738Z,100017.50
2023-05-16T11:42:47.946Z,100013.78
2023-05-16T11:45:22.410Z,100012.94
2023-05-16T11:47:49.965Z,100016.34
2023-05-16T11:50:19.157Z,100008.03
2023-05-16T11:52:50.316Z,100009.31
2023-05-16T11:55:28.151Z,100013.53
2023-05-16T11:58:01.405Z,100007.66
2023-05-16T12:00:28.870Z,100004.97
2023-05-16T12:03:04.637Z,100015.53
2023-05-16T12:05:33.095Z,100017.63
2023-05-16T12:08:00.872Z,100026.75
2023-05-16T12:10:28.300Z,100012.19
2023-05-16T12:12:56.389Z,100018.50
2023-05-16T12:15:23.580Z,100025.16
2023-05-16T12:17:51.330Z,100021.16
2023-05-16T12:20:19.248Z,100020.66
2023-05-16T12:22:46.908Z,100023.22
2023-05-16T12:25:26.939Z,100018.91
2023-05-16T12:27:56.532Z,100020.44
2023-05-16T12:30:25.540Z,100024.19
2023-05-16T12:33:14.932Z,100019.78
2023-05-16T12:35:47.457Z,100029.19
2023-05-16T12:38:17.513Z,100035.41
2023-05-16T12:40:45.802Z,100040.31
2023-05-16T12:43:23.221Z,100032.56
2023-05-16T12:45:56.557Z,100039.97
2023-05-16T12:48:30.012Z,100034.94
2023-05-16T12:50:57.071Z,100045.38
2023-05-16T12:53:24.173Z,100041.59
2023-05-16T12:55:51.206Z,100039.84
2023-05-16T12:58:18.440Z,100036.09
2023-05-16T13:00:45.498Z,100036.91
2023-05-16T13:03:15.686Z,100039.66
2023-05-16T13:05:42.794Z,100037.72
2023-05-16T13:08:09.924Z,100030.69
2023-05-16T13:10:36.980Z,100024.69
2023-05-16T13:13:04.580Z,100024.88
2023-05-16T13:15:31.841Z,100029.78
2023-05-16T13:17:59.062Z,100028.06
2023-05-16T13:20:26.301Z,100035.16
2023-05-16T13:22:53.315Z,100028.13
2023-05-16T13:25:20.390Z,100025.34
2023-05-16T13:27:49.460Z,100024.72
2023-05-16T13:30:16.611Z,100026.28
2023-05-16T13:32:43.713Z,100030.19
2023-05-16T13:35:10.818Z,100028.44
2023-05-16T13:37:37.996Z,100031.03
2023-05-16T13:40:08.697Z,100033.63
2023-05-16T13:42:37.176Z,100041.69
2023-05-16T13:45:05.556Z,100039.19
2023-05-16T13:47:36.585Z,100034.50
2023-05-16T13:50:07.933Z,100031.69
2023-05-16T13:52:37.736Z,100037.88
2023-05-16T13:55:06.009Z,100034.16
2023-05-16T13:57:33.361Z,100037.53
2023-05-16T14:02:30.477Z,100031.91
2023-05-16T14:04:57.513Z,100041.56
2023-05-16T14:07:24.655Z,100035.97
2023-05-16T14:09:51.681Z,100041.41
2023-05-16T14:12:18.699Z,100045.44
2023-05-16T14:14:45.832Z,100041.19
2023-05-16T14:17:12.864Z,100041.88
2023-05-16T14:19:40.101Z,100045.03
2023-05-16T14:22:08.182Z,100033.63
2023-05-16T14:24:35.263Z,100023.53
2023-05-16T14:27:03.258Z,100035.94
2023-05-16T14:29:30.382Z,100027.59
2023-05-16T14:31:57.806Z,100037.16
2023-05-16T14:34:24.925Z,100029.28
2023-05-16T14:36:52.258Z,100036.75
2023-05-16T14:39:19.324Z,100037.19
2023-05-16T14:41:46.967Z,100042.97
2023-05-16T14:44:13.986Z,100040.16
2023-05-16T14:46:41.193Z,100033.78
2023-05-16T14:49:09.190Z,100028.59
2023-05-16T14:51:36.480Z,100034.28
2023-05-16T14:54:03.691Z,100031.91
2023-05-16T14:56:32.006Z,100030.06
2023-05-16T14:59:00.379Z,100035.44
2023-05-16T15:01:27.528Z,100044.25
2023-05-16T15:03:56.312Z,100035.53
2023-05-16T15:06:24.866Z,100041.19
2023-05-16T15:08:52.045Z,100037.88
2023-05-16T15:11:19.537Z,100029.78
2023-05-16T15:13:46.769Z,100036.81
2023-05-16T15:16:14.049Z,100035.09
2023-05-16T15:18:41.880Z,100033.28
2023-05-16T15:21:09.229Z,100037.66
2023-05-16T15:23:36.803Z,100029.84
2023-05-16T15:26:04.773Z,100027.25
2023-05-16T15:28:31.839Z,100037.06
2023-05-16T15:30:58.896Z,100033.22
2023-05-16T15:33:25.928Z,100034.31
2023-05-16T15:35:53.092Z,100042.56
2023-05-16T15:38:20.140Z,100038.13
2023-05-16T15:40:50.605Z,100043.53
2023-05-16T15:43:22.238Z,100045.28
2023-05-16T15:45:49.328Z,100033.38
2023-05-16T15:48:16.511Z,100036.31
2023-05-16T15:50:43.701Z,100042.66
2023-05-16T15:53:10.830Z,100045.28
2023-05-16T15:55:38.144Z,100041.13
2023-05-16T15:58:05.838Z,100042.81
2023-05-16T16:00:32.917Z,100039.19
2023-05-16T16:03:01.054Z,100041.97
2023-05-16T16:05:28.485Z,100043.66
2023-05-16T16:07:55.858Z,100046.50
2023-05-16T16:10:22.995Z,100037.56
2023-05-16T16:13:03.567Z,100039.53
2023-05-16T16:15:34.120Z,100029.00
2023-05-16T16:18:01.725Z,100034.59
2023-05-16T16:20:28.884Z,100030.22
2023-05-16T16:22:56.413Z,100019.44
2023-05-16T16:25:23.611Z,100021.44
2023-05-16T16:27:51.613Z,100025.94
2023-05-16T16:30:18.756Z,100017.97
2023-05-16T16:32:48.592Z,100029.69
2023-05-16T16:35:15.938Z,100023.59
2023-05-16T16:37:48.773Z,100027.28
2023-05-16T16:40:22.025Z,100022.94
2023-05-16T16:42:49.032Z,100018.31
2023-05-16T16:45:16.300Z,100014.91
2023-05-16T16:47:43.356Z,100012.31
2023-05-16T16:50:11.087Z,100019.47
2023-05-16T16:52:38.168Z,100026.72
2023-05-16T16:55:06.161Z,100038.41
2023-05-16T16:57:33.227Z,100030.19
2023-05-16T17:00:00.256Z,100036.53
2023-05-16T17:02:27.989Z,100033.22
2023-05-16T17:04:55.453Z,100031.34
2023-05-16T17:07:22.548Z,100030.47
2023-05-16T17:09:49.667Z,100033.22
2023-05-16T17:12:20.312Z,100027.00
2023-05-16T17:14:49.010Z,100026.06
2023-05-16T17:17:18.782Z,100027.88
2023-05-16T17:19:47.104Z,100036.84
2023-05-16T17:22:14.658Z,100031.50
2023-05-16T17:24:41.715Z,100034.16
2023-05-16T17:27:09.189Z,100035.16
2023-05-16T17:29:37.451Z,100044.09
2023-05-16T17:32:06.234Z,100049.41
2023-05-16T17:34:33.698Z,100049.28
2023-05-16T17:37:01.203Z,100054.72
2023-05-16T17:39:29.174Z,100055.66
2023-05-16T17:41:57.422Z,100050.38
2023-05-16T17:44:24.585Z,100049.50
2023-05-16T17:46:52.171Z,100047.75
2023-05-16T17:49:19.261Z,100056.63
2023-05-16T17:51:52.277Z,100054.03
2023-05-16T17:54:21.166Z,100055.81
2023-05-16T17:56:50.480Z,100059.34
2023-05-16T17:59:18.201Z,100070.03
2023-05-16T18:01:46.394Z,100064.69
2023-05-16T18:04:14.447Z,100061.19
2023-05-16T18:06:41.980Z,100072.00
2023-05-16T18:09:10.428Z,100064.88
2023-05-16T18:11:40.676Z,100076.44
2023-05-16T18:14:14.458Z,100074.63
2023-05-16T18:16:41.922Z,100083.56
2023-05-16T18:19:09.257Z,100073.78
2023-05-16T18:21:37.554Z,100070.22
2023-05-16T18:24:05.407Z,100075.63
2023-05-16T18:26:32.486Z,100072.06
2023-05-16T18:28:59.618Z,100081.84
2023-05-16T18:31:26.806Z,100080.94
2023-05-16T18:33:53.872Z,100080.97
2023-05-16T18:36:20.984Z,100073.84
2023-05-16T18:38:48.049Z,100077.38
2023-05-16T18:41:15.224Z,100086.31
2023-05-16T18:43:42.289Z,100077.38
2023-05-16T18:46:09.322Z,100085.38
2023-05-16T18:48:36.576Z,100089.84
2023-05-16T18:51:03.982Z,100092.50
2023-05-16T18:53:31.099Z,100088.09
2023-05-16T18:55:58.635Z,100088.06
2023-05-16T18:58:25.796Z,100088.09
2023-05-16T19:00:52.927Z,100089.84
2023-05-16T19:03:20.171Z,100085.41
2023-05-16T19:05:47.762Z,100082.72
2023-05-16T19:08:15.134Z,100080.97
2023-05-16T19:10:42.282Z,100086.28
2023-05-16T19:13:09.442Z,100078.31
2023-05-16T19:15:38.020Z,100073.81
2023-05-16T19:18:06.550Z,100073.81
2023-05-16T19:20:35.562Z,100080.94
2023-05-16T19:23:03.601Z,100085.41
2023-05-16T19:25:30.847Z,100084.53
2023-05-16T19:27:58.400Z,100080.97
2023-05-16T19:30:25.699Z,100077.38
2023-05-16T19:32:53.075Z,100083.63
2023-05-16T19:35:20.328Z,100090.75
2023-05-16T19:37:47.469Z,100087.19
2023-05-16T19:40:17.132Z,100092.47
2023-05-16T19:42:44.569Z,100100.50
2023-05-16T19:45:11.859Z,100097.84
2023-05-16T19:47:41.941Z,100102.28
2023-05-16T19:50:10.387Z,100099.66
2023-05-16T19:52:37.566Z,100095.19
2023-05-16T19:55:07.741Z,100101.41
2023-05-16T19:57:34.970Z,100094.31
2023-05-16T20:00:02.252Z,100096.97
2023-05-16T20:02:29.387Z,100100.53
2023-05-16T20:04:56.496Z,100098.72
2023-05-16T20:07:24.233Z,100098.75
2023-05-16T20:09:51.303Z,100093.38
2023-05-16T20:12:18.414Z,100098.72
2023-05-16T20:14:45.528Z,100104.00
2023-05-16T20:17:12.934Z,100101.38
2023-05-16T20:19:44.071Z,100103.16
2023-05-16T20:22:11.587Z,100099.56
2023-05-16T20:24:38.720Z,100102.25
2023-05-16T20:27:05.983Z,100102.25
2023-05-16T20:29:33.980Z,100096.03
2023-05-16T20:32:03.337Z,100102.25
2023-05-16T20:34:31.871Z,100101.34
2023-05-16T20:36:58.979Z,100105.78
2023-05-16T20:39:26.322Z,100101.34
2023-05-16T20:41:53.659Z,100108.47
2023-05-16T20:44:21.024Z,100097.78
2023-05-16T20:46:48.142Z,100107.53
2023-05-16T20:49:15.211Z,100095.00
2023-05-16T20:51:43.006Z,100100.44
2023-05-16T20:54:10.699Z,100103.09
2023-05-16T20:56:37.775Z,100100.44
2023-05-16T20:59:04.850Z,100104.00
2023-05-16T21:01:32.164Z,100108.34
2023-05-16T21:03:59.340Z,100108.34
2023-05-16T21:06:26.386Z,100114.56
2023-05-16T21:08:53.526Z,100112.78
2023-05-16T21:11:21.859Z,100114.59
2023-05-16T21:13:49.101Z,100112.88
2023-05-16T21:16:16.103Z,100114.66
2023-05-16T21:18:43.387Z,100120.88
2023-05-16T21:21:10.572Z,100125.25
2023-05-16T21:23:37.621Z,100114.63
2023-05-16T21:26:04.792Z,100120.81
2023-05-16T21:28:36.840Z,100116.34
2023-05-16T21:31:08.151Z,100122.50
2023-05-16T21:33:35.568Z,100123.44
2023-05-16T21:36:02.969Z,100118.13
2023-05-16T21:38:30.008Z,100118.94
2023-05-16T21:41:00.275Z,100114.47
2023-05-16T21:43:27.349Z,100113.56
2023-05-16T21:45:54.417Z,100121.56
2023-05-16T21:48:21.661Z,100113.56
2023-05-16T21:50:51.620Z,100105.56
2023-05-16T21:53:19.174Z,100109.13
2023-05-16T21:55:46.285Z,100101.09
2023-05-16T21:58:13.464Z,100102.91
2023-05-16T22:00:40.716Z,100109.16
2023-05-16T22:03:08.061Z,100109.09
2023-05-16T22:05:35.236Z,100111.75
2023-05-16T22:08:02.440Z,100107.28
2023-05-16T22:10:29.611Z,100105.56
2023-05-16T22:12:56.627Z,100107.28
2023-05-16T22:15:23.755Z,100106.34
2023-05-16T22:17:51.345Z,100102.78
2023-05-16T22:20:18.588Z,100105.53
2023-05-16T22:22:45.715Z,100108.22
2023-05-16T22:25:12.830Z,100107.28
2023-05-16T22:27:39.927Z,100108.19
2023-05-16T22:30:08.248Z,100109.06
2023-05-16T22:32:35.373Z,100110.00
2023-05-16T22:35:02.440Z,100110.84
2023-05-16T22:37:29.661Z,100114.38
2023-05-16T22:39:57.103Z,100117.06
2023-05-16T22:42:24.288Z,100119.69
2023-05-16T22:44:51.386Z,100115.22
2023-05-16T22:47:18.422Z,100111.66
2023-05-16T22:49:45.642Z,100119.66
2023-05-16T22:52:12.737Z,100114.31
2023-05-16T22:54:41.624Z,100120.53
2023-05-16T22:57:08.745Z,100125.84
2023-05-16T22:59:35.776Z,100123.22
2023-05-16T23:02:02.776Z,100120.50
2023-05-16T23:04:29.843Z,100118.75
2023-05-16T23:06:56.940Z,100123.22
2023-05-16T23:09:24.048Z,100120.50
2023-05-16T23:11:51.343Z,100100.88
2023-05-16T23:14:18.438Z,100116.91
2023-05-16T23:16:45.493Z,100111.56
2023-05-16T23:19:12.552Z,100119.56
2023-05-16T23:21:40.031Z,100105.28
2023-05-16T23:24:07.291Z,100113.25
2023-05-16T23:26:34.473Z,100093.69
2023-05-16T23:29:01.547Z,100100.78
2023-05-16T23:31:28.782Z,100114.13
2023-05-16T23:33:56.252Z,100106.13
2023-05-16T23:36:23.343Z,100114.13
2023-05-16T23:38:50.952Z,100115.16
2023-05-16T23:41:18.088Z,100107.16
2023-05-16T23:43:45.146Z,100106.22
2023-05-16T23:46:12.265Z,100118.56
2023-05-16T23:48:40.012Z,100107.81
2023-05-16T23:51:07.793Z,100106.91
2023-05-16T23:53:35.653Z,100111.38
2023-05-16T23:56:03.537Z,100115.78
2023-05-16T23:58:30.672Z,100110.47
